sensor_id;sensor_type;location;lat;lon;timestamp;P1;durP1;ratioP1;P2;durP2;ratioP2
71148;SDS011;59072;42.144;25.200;2024-01-27T00:01:01;8.13;;;3.47;;
71148;SDS011;59072;42.144;25.200;2024-01-27T00:03:27;8.30;;;4.22;;
71148;SDS011;59072;42.144;25.200;2024-01-27T00:05:52;7.60;;;3.72;;
71148;SDS011;59072;42.144;25.200;2024-01-27T00:08:17;7.63;;;3.05;;
71148;SDS011;59072;42.144;25.200;2024-01-27T00:10:43;6.93;;;3.20;;
71148;SDS011;59072;42.144;25.200;2024-01-27T00:13:11;7.85;;;3.00;;
71148;SDS011;59072;42.144;25.200;2024-01-27T00:15:36;8.18;;;3.65;;
71148;SDS011;59072;42.144;25.200;2024-01-27T00:18:02;6.97;;;2.65;;
71148;SDS011;59072;42.144;25.200;2024-01-27T00:20:27;6.85;;;2.60;;
71148;SDS011;59072;42.144;25.200;2024-01-27T00:22:54;6.65;;;2.67;;
71148;SDS011;59072;42.144;25.200;2024-01-27T00:25:19;8.85;;;3.10;;
71148;SDS011;59072;42.144;25.200;2024-01-27T00:27:45;5.18;;;2.83;;
71148;SDS011;59072;42.144;25.200;2024-01-27T00:30:10;6.05;;;3.25;;
71148;SDS011;59072;42.144;25.200;2024-01-27T00:32:36;8.93;;;3.22;;
71148;SDS011;59072;42.144;25.200;2024-01-27T00:35:02;6.40;;;2.75;;
71148;SDS011;59072;42.144;25.200;2024-01-27T00:37:28;5.75;;;2.75;;
71148;SDS011;59072;42.144;25.200;2024-01-27T00:39:54;7.80;;;3.40;;
71148;SDS011;59072;42.144;25.200;2024-01-27T00:42:19;7.95;;;2.80;;
71148;SDS011;59072;42.144;25.200;2024-01-27T00:44:49;7.60;;;3.38;;
71148;SDS011;59072;42.144;25.200;2024-01-27T00:47:15;5.93;;;3.08;;
71148;SDS011;59072;42.144;25.200;2024-01-27T00:49:40;10.10;;;3.40;;
71148;SDS011;59072;42.144;25.200;2024-01-27T00:52:06;10.40;;;4.10;;
71148;SDS011;59072;42.144;25.200;2024-01-27T00:54:31;11.35;;;4.57;;
71148;SDS011;59072;42.144;25.200;2024-01-27T00:56:56;12.32;;;4.75;;
71148;SDS011;59072;42.144;25.200;2024-01-27T00:59:22;14.90;;;5.20;;
71148;SDS011;59072;42.144;25.200;2024-01-27T01:01:47;11.77;;;5.22;;
71148;SDS011;59072;42.144;25.200;2024-01-27T01:04:13;14.13;;;6.20;;
71148;SDS011;59072;42.144;25.200;2024-01-27T01:06:39;13.23;;;5.18;;
71148;SDS011;59072;42.144;25.200;2024-01-27T01:09:05;12.38;;;5.25;;
71148;SDS011;59072;42.144;25.200;2024-01-27T01:11:30;11.30;;;4.75;;
71148;SDS011;59072;42.144;25.200;2024-01-27T01:13:56;11.55;;;4.75;;
71148;SDS011;59072;42.144;25.200;2024-01-27T01:16:21;10.13;;;4.30;;
71148;SDS011;59072;42.144;25.200;2024-01-27T01:18:47;8.93;;;4.40;;
71148;SDS011;59072;42.144;25.200;2024-01-27T01:21:12;9.48;;;4.75;;
71148;SDS011;59072;42.144;25.200;2024-01-27T01:23:38;13.30;;;5.38;;
71148;SDS011;59072;42.144;25.200;2024-01-27T01:26:03;11.77;;;4.63;;
71148;SDS011;59072;42.144;25.200;2024-01-27T01:28:29;13.95;;;5.68;;
71148;SDS011;59072;42.144;25.200;2024-01-27T01:30:54;11.60;;;5.47;;
71148;SDS011;59072;42.144;25.200;2024-01-27T01:33:20;13.10;;;5.85;;
71148;SDS011;59072;42.144;25.200;2024-01-27T01:35:45;11.75;;;4.53;;
71148;SDS011;59072;42.144;25.200;2024-01-27T01:38:10;11.50;;;4.15;;
71148;SDS011;59072;42.144;25.200;2024-01-27T01:40:36;8.68;;;3.92;;
71148;SDS011;59072;42.144;25.200;2024-01-27T01:43:01;8.15;;;3.40;;
71148;SDS011;59072;42.144;25.200;2024-01-27T01:45:29;8.88;;;3.55;;
71148;SDS011;59072;42.144;25.200;2024-01-27T01:47:54;9.10;;;3.25;;
71148;SDS011;59072;42.144;25.200;2024-01-27T01:50:20;9.00;;;3.45;;
71148;SDS011;59072;42.144;25.200;2024-01-27T01:52:47;7.38;;;3.33;;
71148;SDS011;59072;42.144;25.200;2024-01-27T01:55:14;6.35;;;3.17;;
71148;SDS011;59072;42.144;25.200;2024-01-27T01:57:40;8.48;;;3.45;;
71148;SDS011;59072;42.144;25.200;2024-01-27T02:00:05;8.80;;;2.90;;
71148;SDS011;59072;42.144;25.200;2024-01-27T02:02:31;6.88;;;3.03;;
71148;SDS011;59072;42.144;25.200;2024-01-27T02:04:57;6.30;;;2.58;;
71148;SDS011;59072;42.144;25.200;2024-01-27T02:07:22;6.72;;;2.88;;
71148;SDS011;59072;42.144;25.200;2024-01-27T02:09:47;8.32;;;3.05;;
71148;SDS011;59072;42.144;25.200;2024-01-27T02:12:13;7.18;;;2.97;;
71148;SDS011;59072;42.144;25.200;2024-01-27T02:14:38;6.43;;;2.97;;
71148;SDS011;59072;42.144;25.200;2024-01-27T02:17:04;6.32;;;2.80;;
71148;SDS011;59072;42.144;25.200;2024-01-27T02:19:29;6.10;;;2.95;;
71148;SDS011;59072;42.144;25.200;2024-01-27T02:21:55;7.40;;;3.13;;
71148;SDS011;59072;42.144;25.200;2024-01-27T02:24:20;8.30;;;3.53;;
71148;SDS011;59072;42.144;25.200;2024-01-27T02:26:45;8.45;;;3.70;;
71148;SDS011;59072;42.144;25.200;2024-01-27T02:29:11;7.50;;;3.35;;
71148;SDS011;59072;42.144;25.200;2024-01-27T02:31:36;6.85;;;3.60;;
71148;SDS011;59072;42.144;25.200;2024-01-27T02:34:02;7.38;;;3.63;;
71148;SDS011;59072;42.144;25.200;2024-01-27T02:36:27;7.82;;;3.92;;
71148;SDS011;59072;42.144;25.200;2024-01-27T02:38:53;11.13;;;4.45;;
71148;SDS011;59072;42.144;25.200;2024-01-27T02:41:18;8.05;;;3.97;;
71148;SDS011;59072;42.144;25.200;2024-01-27T02:43:43;9.90;;;3.97;;
71148;SDS011;59072;42.144;25.200;2024-01-27T02:46:12;7.43;;;3.60;;
71148;SDS011;59072;42.144;25.200;2024-01-27T02:48:41;8.50;;;3.58;;
71148;SDS011;59072;42.144;25.200;2024-01-27T02:51:07;7.97;;;3.63;;
71148;SDS011;59072;42.144;25.200;2024-01-27T02:53:33;7.38;;;3.70;;
71148;SDS011;59072;42.144;25.200;2024-01-27T02:55:59;46.67;;;20.25;;
71148;SDS011;59072;42.144;25.200;2024-01-27T02:58:24;107.03;;;41.20;;
71148;SDS011;59072;42.144;25.200;2024-01-27T03:00:50;73.30;;;31.40;;
71148;SDS011;59072;42.144;25.200;2024-01-27T03:03:15;31.88;;;12.30;;
71148;SDS011;59072;42.144;25.200;2024-01-27T03:05:41;14.55;;;6.50;;
71148;SDS011;59072;42.144;25.200;2024-01-27T03:08:06;12.13;;;5.57;;
71148;SDS011;59072;42.144;25.200;2024-01-27T03:10:32;11.43;;;4.95;;
71148;SDS011;59072;42.144;25.200;2024-01-27T03:12:57;13.38;;;4.78;;
71148;SDS011;59072;42.144;25.200;2024-01-27T03:15:23;8.27;;;4.45;;
71148;SDS011;59072;42.144;25.200;2024-01-27T03:17:48;10.90;;;5.25;;
71148;SDS011;59072;42.144;25.200;2024-01-27T03:20:14;30.35;;;12.85;;
71148;SDS011;59072;42.144;25.200;2024-01-27T03:22:39;21.52;;;8.38;;
71148;SDS011;59072;42.144;25.200;2024-01-27T03:27:34;16.70;;;6.50;;
71148;SDS011;59072;42.144;25.200;2024-01-27T03:30:00;11.95;;;6.40;;
71148;SDS011;59072;42.144;25.200;2024-01-27T03:34:56;18.17;;;6.82;;
71148;SDS011;59072;42.144;25.200;2024-01-27T03:37:23;14.02;;;6.10;;
71148;SDS011;59072;42.144;25.200;2024-01-27T03:39:48;28.02;;;12.88;;
71148;SDS011;59072;42.144;25.200;2024-01-27T03:42:13;15.18;;;7.35;;
71148;SDS011;59072;42.144;25.200;2024-01-27T03:44:39;12.75;;;6.45;;
71148;SDS011;59072;42.144;25.200;2024-01-27T03:47:04;123.60;;;79.13;;
71148;SDS011;59072;42.144;25.200;2024-01-27T03:49:30;74.57;;;46.95;;
71148;SDS011;59072;42.144;25.200;2024-01-27T03:51:55;53.00;;;34.00;;
71148;SDS011;59072;42.144;25.200;2024-01-27T03:54:20;63.00;;;38.30;;
71148;SDS011;59072;42.144;25.200;2024-01-27T03:56:46;39.33;;;23.77;;
71148;SDS011;59072;42.144;25.200;2024-01-27T03:59:12;29.40;;;18.05;;
71148;SDS011;59072;42.144;25.200;2024-01-27T04:01:37;25.40;;;14.50;;
71148;SDS011;59072;42.144;25.200;2024-01-27T04:04:03;22.27;;;11.80;;
71148;SDS011;59072;42.144;25.200;2024-01-27T04:06:28;23.55;;;13.73;;
71148;SDS011;59072;42.144;25.200;2024-01-27T04:08:53;24.92;;;15.48;;
71148;SDS011;59072;42.144;25.200;2024-01-27T04:11:22;26.20;;;14.10;;
71148;SDS011;59072;42.144;25.200;2024-01-27T04:13:48;31.38;;;17.48;;
71148;SDS011;59072;42.144;25.200;2024-01-27T04:16:15;32.38;;;18.70;;
71148;SDS011;59072;42.144;25.200;2024-01-27T04:18:41;28.10;;;14.80;;
71148;SDS011;59072;42.144;25.200;2024-01-27T04:21:07;28.35;;;16.73;;
71148;SDS011;59072;42.144;25.200;2024-01-27T04:23:32;36.22;;;22.40;;
71148;SDS011;59072;42.144;25.200;2024-01-27T04:25:58;45.38;;;27.80;;
71148;SDS011;59072;42.144;25.200;2024-01-27T04:28:24;25.63;;;13.73;;
71148;SDS011;59072;42.144;25.200;2024-01-27T04:30:49;23.35;;;13.32;;
71148;SDS011;59072;42.144;25.200;2024-01-27T04:33:15;19.38;;;10.27;;
71148;SDS011;59072;42.144;25.200;2024-01-27T04:35:40;19.90;;;9.43;;
71148;SDS011;59072;42.144;25.200;2024-01-27T04:38:07;17.30;;;9.40;;
71148;SDS011;59072;42.144;25.200;2024-01-27T04:40:33;16.77;;;8.98;;
71148;SDS011;59072;42.144;25.200;2024-01-27T04:43:00;18.27;;;9.52;;
71148;SDS011;59072;42.144;25.200;2024-01-27T04:45:26;19.20;;;9.40;;
71148;SDS011;59072;42.144;25.200;2024-01-27T04:47:52;52.15;;;30.85;;
71148;SDS011;59072;42.144;25.200;2024-01-27T04:50:18;41.60;;;26.65;;
71148;SDS011;59072;42.144;25.200;2024-01-27T04:52:44;22.42;;;13.30;;
71148;SDS011;59072;42.144;25.200;2024-01-27T04:55:10;28.83;;;15.98;;
71148;SDS011;59072;42.144;25.200;2024-01-27T04:57:36;23.38;;;12.95;;
71148;SDS011;59072;42.144;25.200;2024-01-27T05:00:01;24.30;;;11.43;;
71148;SDS011;59072;42.144;25.200;2024-01-27T05:02:27;26.70;;;13.15;;
71148;SDS011;59072;42.144;25.200;2024-01-27T05:04:52;33.97;;;15.48;;
71148;SDS011;59072;42.144;25.200;2024-01-27T05:07:18;18.92;;;10.82;;
71148;SDS011;59072;42.144;25.200;2024-01-27T05:09:43;23.13;;;12.40;;
71148;SDS011;59072;42.144;25.200;2024-01-27T05:12:09;20.98;;;12.73;;
71148;SDS011;59072;42.144;25.200;2024-01-27T05:14:34;30.65;;;15.55;;
71148;SDS011;59072;42.144;25.200;2024-01-27T05:16:59;31.33;;;15.52;;
71148;SDS011;59072;42.144;25.200;2024-01-27T05:19:25;39.17;;;16.77;;
71148;SDS011;59072;42.144;25.200;2024-01-27T05:21:50;24.88;;;13.38;;
71148;SDS011;59072;42.144;25.200;2024-01-27T05:24:16;25.02;;;13.13;;
71148;SDS011;59072;42.144;25.200;2024-01-27T05:26:41;14.02;;;7.50;;
71148;SDS011;59072;42.144;25.200;2024-01-27T05:29:06;16.90;;;9.02;;
71148;SDS011;59072;42.144;25.200;2024-01-27T05:31:32;24.60;;;11.52;;
71148;SDS011;59072;42.144;25.200;2024-01-27T05:33:58;17.58;;;9.95;;
71148;SDS011;59072;42.144;25.200;2024-01-27T05:36:24;19.27;;;10.02;;
71148;SDS011;59072;42.144;25.200;2024-01-27T05:38:49;22.13;;;12.35;;
71148;SDS011;59072;42.144;25.200;2024-01-27T05:41:15;31.38;;;15.48;;
71148;SDS011;59072;42.144;25.200;2024-01-27T05:43:40;106.35;;;55.30;;
71148;SDS011;59072;42.144;25.200;2024-01-27T05:46:06;60.85;;;34.20;;
71148;SDS011;59072;42.144;25.200;2024-01-27T05:48:34;48.30;;;24.52;;
71148;SDS011;59072;42.144;25.200;2024-01-27T05:51:00;37.80;;;20.70;;
71148;SDS011;59072;42.144;25.200;2024-01-27T05:53:26;87.40;;;49.45;;
71148;SDS011;59072;42.144;25.200;2024-01-27T05:55:52;31.83;;;17.95;;
71148;SDS011;59072;42.144;25.200;2024-01-27T05:58:21;42.88;;;26.63;;
71148;SDS011;59072;42.144;25.200;2024-01-27T06:00:47;40.83;;;25.10;;
71148;SDS011;59072;42.144;25.200;2024-01-27T06:03:13;35.70;;;18.17;;
71148;SDS011;59072;42.144;25.200;2024-01-27T06:05:38;34.40;;;20.77;;
71148;SDS011;59072;42.144;25.200;2024-01-27T06:08:04;48.67;;;35.50;;
71148;SDS011;59072;42.144;25.200;2024-01-27T06:10:30;42.42;;;29.92;;
71148;SDS011;59072;42.144;25.200;2024-01-27T06:12:56;37.80;;;25.13;;
71148;SDS011;59072;42.144;25.200;2024-01-27T06:15:22;37.05;;;24.67;;
71148;SDS011;59072;42.144;25.200;2024-01-27T06:17:47;45.10;;;22.35;;
71148;SDS011;59072;42.144;25.200;2024-01-27T06:20:13;37.45;;;22.38;;
71148;SDS011;59072;42.144;25.200;2024-01-27T06:22:38;68.38;;;35.03;;
71148;SDS011;59072;42.144;25.200;2024-01-27T06:25:04;75.65;;;49.90;;
71148;SDS011;59072;42.144;25.200;2024-01-27T06:27:30;40.70;;;24.88;;
71148;SDS011;59072;42.144;25.200;2024-01-27T06:29:55;35.67;;;19.65;;
71148;SDS011;59072;42.144;25.200;2024-01-27T06:32:20;30.23;;;19.52;;
71148;SDS011;59072;42.144;25.200;2024-01-27T06:34:46;35.30;;;19.58;;
71148;SDS011;59072;42.144;25.200;2024-01-27T06:37:11;35.05;;;21.08;;
71148;SDS011;59072;42.144;25.200;2024-01-27T06:39:37;60.20;;;31.85;;
71148;SDS011;59072;42.144;25.200;2024-01-27T06:42:02;58.90;;;35.53;;
71148;SDS011;59072;42.144;25.200;2024-01-27T06:44:28;55.97;;;30.95;;
71148;SDS011;59072;42.144;25.200;2024-01-27T06:46:53;48.00;;;27.02;;
71148;SDS011;59072;42.144;25.200;2024-01-27T06:49:18;37.28;;;21.33;;
71148;SDS011;59072;42.144;25.200;2024-01-27T06:51:45;38.80;;;22.67;;
71148;SDS011;59072;42.144;25.200;2024-01-27T06:54:11;32.60;;;18.60;;
71148;SDS011;59072;42.144;25.200;2024-01-27T06:56:36;37.20;;;19.38;;
71148;SDS011;59072;42.144;25.200;2024-01-27T06:59:02;45.45;;;23.85;;
71148;SDS011;59072;42.144;25.200;2024-01-27T07:01:27;48.00;;;28.35;;
71148;SDS011;59072;42.144;25.200;2024-01-27T07:03:52;46.42;;;24.95;;
71148;SDS011;59072;42.144;25.200;2024-01-27T07:06:18;44.47;;;23.33;;
71148;SDS011;59072;42.144;25.200;2024-01-27T07:08:44;41.53;;;24.17;;
71148;SDS011;59072;42.144;25.200;2024-01-27T07:11:09;26.75;;;15.90;;
71148;SDS011;59072;42.144;25.200;2024-01-27T07:13:35;18.88;;;10.80;;
71148;SDS011;59072;42.144;25.200;2024-01-27T07:16:00;22.20;;;11.80;;
71148;SDS011;59072;42.144;25.200;2024-01-27T07:18:26;18.60;;;11.02;;
71148;SDS011;59072;42.144;25.200;2024-01-27T07:20:51;20.67;;;10.60;;
71148;SDS011;59072;42.144;25.200;2024-01-27T07:23:17;14.05;;;8.48;;
71148;SDS011;59072;42.144;25.200;2024-01-27T07:25:45;12.73;;;7.93;;
71148;SDS011;59072;42.144;25.200;2024-01-27T07:28:10;21.65;;;12.00;;
71148;SDS011;59072;42.144;25.200;2024-01-27T07:30:36;21.55;;;12.23;;
71148;SDS011;59072;42.144;25.200;2024-01-27T07:33:02;31.35;;;15.77;;
71148;SDS011;59072;42.144;25.200;2024-01-27T07:35:28;27.50;;;13.27;;
71148;SDS011;59072;42.144;25.200;2024-01-27T07:37:53;30.55;;;14.85;;
71148;SDS011;59072;42.144;25.200;2024-01-27T07:40:19;33.60;;;17.27;;
71148;SDS011;59072;42.144;25.200;2024-01-27T07:42:44;25.00;;;13.65;;
71148;SDS011;59072;42.144;25.200;2024-01-27T07:45:09;28.05;;;15.30;;
71148;SDS011;59072;42.144;25.200;2024-01-27T07:47:35;26.63;;;14.80;;
71148;SDS011;59072;42.144;25.200;2024-01-27T07:50:00;33.92;;;20.33;;
71148;SDS011;59072;42.144;25.200;2024-01-27T07:52:26;35.88;;;21.65;;
71148;SDS011;59072;42.144;25.200;2024-01-27T07:54:51;45.65;;;25.95;;
71148;SDS011;59072;42.144;25.200;2024-01-27T07:57:17;49.55;;;29.88;;
71148;SDS011;59072;42.144;25.200;2024-01-27T07:59:42;48.35;;;27.88;;
71148;SDS011;59072;42.144;25.200;2024-01-27T08:02:07;64.88;;;32.70;;
71148;SDS011;59072;42.144;25.200;2024-01-27T08:04:33;60.63;;;38.53;;
71148;SDS011;59072;42.144;25.200;2024-01-27T08:06:59;62.97;;;36.00;;
71148;SDS011;59072;42.144;25.200;2024-01-27T08:09:25;55.47;;;33.42;;
71148;SDS011;59072;42.144;25.200;2024-01-27T08:11:50;55.90;;;34.92;;
71148;SDS011;59072;42.144;25.200;2024-01-27T08:14:19;60.85;;;35.63;;
71148;SDS011;59072;42.144;25.200;2024-01-27T08:16:45;66.15;;;37.67;;
71148;SDS011;59072;42.144;25.200;2024-01-27T08:19:10;65.60;;;38.25;;
71148;SDS011;59072;42.144;25.200;2024-01-27T08:21:35;72.65;;;42.78;;
71148;SDS011;59072;42.144;25.200;2024-01-27T08:24:01;85.82;;;46.38;;
71148;SDS011;59072;42.144;25.200;2024-01-27T08:26:26;107.00;;;50.17;;
71148;SDS011;59072;42.144;25.200;2024-01-27T08:28:51;90.45;;;43.15;;
71148;SDS011;59072;42.144;25.200;2024-01-27T08:31:19;138.20;;;55.00;;
71148;SDS011;59072;42.144;25.200;2024-01-27T08:33:44;112.00;;;49.97;;
71148;SDS011;59072;42.144;25.200;2024-01-27T08:36:16;78.88;;;40.47;;
71148;SDS011;59072;42.144;25.200;2024-01-27T08:38:41;78.82;;;44.92;;
71148;SDS011;59072;42.144;25.200;2024-01-27T08:41:07;54.17;;;30.83;;
71148;SDS011;59072;42.144;25.200;2024-01-27T08:43:32;128.73;;;85.60;;
71148;SDS011;59072;42.144;25.200;2024-01-27T08:45:58;64.72;;;42.55;;
71148;SDS011;59072;42.144;25.200;2024-01-27T08:48:25;57.20;;;45.35;;
71148;SDS011;59072;42.144;25.200;2024-01-27T08:50:51;46.80;;;35.60;;
71148;SDS011;59072;42.144;25.200;2024-01-27T08:53:16;45.00;;;31.85;;
71148;SDS011;59072;42.144;25.200;2024-01-27T08:55:42;35.83;;;23.48;;
71148;SDS011;59072;42.144;25.200;2024-01-27T08:58:07;61.42;;;51.95;;
71148;SDS011;59072;42.144;25.200;2024-01-27T09:00:33;41.33;;;26.55;;
71148;SDS011;59072;42.144;25.200;2024-01-27T09:02:58;39.97;;;23.48;;
71148;SDS011;59072;42.144;25.200;2024-01-27T09:05:24;40.13;;;23.33;;
71148;SDS011;59072;42.144;25.200;2024-01-27T09:07:49;51.65;;;26.00;;
71148;SDS011;59072;42.144;25.200;2024-01-27T09:10:15;33.90;;;20.77;;
71148;SDS011;59072;42.144;25.200;2024-01-27T09:12:40;27.23;;;17.67;;
71148;SDS011;59072;42.144;25.200;2024-01-27T09:15:06;27.98;;;16.90;;
71148;SDS011;59072;42.144;25.200;2024-01-27T09:17:32;31.40;;;19.67;;
71148;SDS011;59072;42.144;25.200;2024-01-27T09:19:57;30.08;;;17.67;;
71148;SDS011;59072;42.144;25.200;2024-01-27T09:22:23;29.58;;;17.92;;
71148;SDS011;59072;42.144;25.200;2024-01-27T09:24:48;164.98;;;73.72;;
71148;SDS011;59072;42.144;25.200;2024-01-27T09:27:14;57.92;;;30.77;;
71148;SDS011;59072;42.144;25.200;2024-01-27T09:29:39;33.92;;;18.85;;
71148;SDS011;59072;42.144;25.200;2024-01-27T09:32:07;28.45;;;16.90;;
71148;SDS011;59072;42.144;25.200;2024-01-27T09:34:32;27.05;;;16.17;;
71148;SDS011;59072;42.144;25.200;2024-01-27T09:36:58;32.83;;;17.80;;
71148;SDS011;59072;42.144;25.200;2024-01-27T09:39:23;28.25;;;18.77;;
71148;SDS011;59072;42.144;25.200;2024-01-27T09:41:49;25.80;;;17.63;;
71148;SDS011;59072;42.144;25.200;2024-01-27T09:44:15;22.70;;;14.00;;
71148;SDS011;59072;42.144;25.200;2024-01-27T09:46:43;17.20;;;10.27;;
71148;SDS011;59072;42.144;25.200;2024-01-27T09:49:10;13.63;;;8.35;;
71148;SDS011;59072;42.144;25.200;2024-01-27T09:51:38;19.05;;;12.48;;
71148;SDS011;59072;42.144;25.200;2024-01-27T09:54:04;41.25;;;26.02;;
71148;SDS011;59072;42.144;25.200;2024-01-27T09:56:29;15.07;;;10.43;;
71148;SDS011;59072;42.144;25.200;2024-01-27T09:58:56;26.83;;;16.23;;
71148;SDS011;59072;42.144;25.200;2024-01-27T10:01:22;12.73;;;6.28;;
71148;SDS011;59072;42.144;25.200;2024-01-27T10:03:50;24.95;;;12.68;;
71148;SDS011;59072;42.144;25.200;2024-01-27T10:06:16;15.57;;;9.02;;
71148;SDS011;59072;42.144;25.200;2024-01-27T10:08:43;23.70;;;11.75;;
71148;SDS011;59072;42.144;25.200;2024-01-27T10:11:17;38.72;;;18.25;;
71148;SDS011;59072;42.144;25.200;2024-01-27T10:13:45;26.58;;;12.48;;
71148;SDS011;59072;42.144;25.200;2024-01-27T10:16:10;43.90;;;19.20;;
71148;SDS011;59072;42.144;25.200;2024-01-27T10:18:37;29.60;;;14.50;;
71148;SDS011;59072;42.144;25.200;2024-01-27T10:21:18;24.95;;;13.02;;
71148;SDS011;59072;42.144;25.200;2024-01-27T10:23:45;16.05;;;9.25;;
71148;SDS011;59072;42.144;25.200;2024-01-27T10:26:10;23.13;;;12.38;;
71148;SDS011;59072;42.144;25.200;2024-01-27T10:28:36;18.65;;;9.05;;
71148;SDS011;59072;42.144;25.200;2024-01-27T10:31:11;11.73;;;6.43;;
71148;SDS011;59072;42.144;25.200;2024-01-27T10:33:37;11.45;;;5.65;;
71148;SDS011;59072;42.144;25.200;2024-01-27T10:36:03;5.40;;;3.40;;
71148;SDS011;59072;42.144;25.200;2024-01-27T10:38:38;5.75;;;3.53;;
71148;SDS011;59072;42.144;25.200;2024-01-27T10:41:07;6.30;;;3.10;;
71148;SDS011;59072;42.144;25.200;2024-01-27T10:43:35;5.70;;;3.22;;
71148;SDS011;59072;42.144;25.200;2024-01-27T10:46:05;5.55;;;3.08;;
71148;SDS011;59072;42.144;25.200;2024-01-27T10:48:35;4.78;;;2.90;;
71148;SDS011;59072;42.144;25.200;2024-01-27T10:51:07;4.53;;;2.30;;
71148;SDS011;59072;42.144;25.200;2024-01-27T10:53:35;5.60;;;2.53;;
71148;SDS011;59072;42.144;25.200;2024-01-27T10:56:03;4.20;;;2.55;;
71148;SDS011;59072;42.144;25.200;2024-01-27T10:58:33;4.72;;;2.10;;
71148;SDS011;59072;42.144;25.200;2024-01-27T11:01:05;4.30;;;2.20;;
71148;SDS011;59072;42.144;25.200;2024-01-27T11:03:34;4.03;;;2.00;;
71148;SDS011;59072;42.144;25.200;2024-01-27T11:06:03;5.03;;;3.00;;
71148;SDS011;59072;42.144;25.200;2024-01-27T11:08:31;6.32;;;4.43;;
71148;SDS011;59072;42.144;25.200;2024-01-27T11:10:58;3.58;;;1.88;;
71148;SDS011;59072;42.144;25.200;2024-01-27T11:13:25;4.38;;;2.60;;
71148;SDS011;59072;42.144;25.200;2024-01-27T11:15:53;4.10;;;2.28;;
71148;SDS011;59072;42.144;25.200;2024-01-27T11:18:19;3.15;;;2.05;;
71148;SDS011;59072;42.144;25.200;2024-01-27T11:20:44;7.00;;;3.38;;
71148;SDS011;59072;42.144;25.200;2024-01-27T11:23:10;5.80;;;3.22;;
71148;SDS011;59072;42.144;25.200;2024-01-27T11:25:38;9.25;;;3.45;;
71148;SDS011;59072;42.144;25.200;2024-01-27T11:28:10;5.60;;;3.08;;
71148;SDS011;59072;42.144;25.200;2024-01-27T11:30:40;4.15;;;2.33;;
71148;SDS011;59072;42.144;25.200;2024-01-27T11:33:12;5.95;;;2.92;;
71148;SDS011;59072;42.144;25.200;2024-01-27T11:35:38;5.38;;;3.33;;
71148;SDS011;59072;42.144;25.200;2024-01-27T11:38:03;6.35;;;3.55;;
71148;SDS011;59072;42.144;25.200;2024-01-27T11:40:29;5.10;;;3.00;;
71148;SDS011;59072;42.144;25.200;2024-01-27T11:43:00;4.05;;;2.35;;
71148;SDS011;59072;42.144;25.200;2024-01-27T11:45:27;7.90;;;4.85;;
71148;SDS011;59072;42.144;25.200;2024-01-27T11:47:54;4.30;;;2.38;;
71148;SDS011;59072;42.144;25.200;2024-01-27T11:50:20;3.40;;;2.38;;
71148;SDS011;59072;42.144;25.200;2024-01-27T11:52:46;2.80;;;2.00;;
71148;SDS011;59072;42.144;25.200;2024-01-27T11:55:12;3.75;;;2.10;;
71148;SDS011;59072;42.144;25.200;2024-01-27T11:57:40;6.10;;;2.88;;
71148;SDS011;59072;42.144;25.200;2024-01-27T12:00:06;3.05;;;2.10;;
71148;SDS011;59072;42.144;25.200;2024-01-27T12:02:32;2.70;;;2.00;;
71148;SDS011;59072;42.144;25.200;2024-01-27T12:04:57;3.85;;;2.25;;
71148;SDS011;59072;42.144;25.200;2024-01-27T12:07:24;3.03;;;2.03;;
71148;SDS011;59072;42.144;25.200;2024-01-27T12:09:51;3.33;;;2.20;;
71148;SDS011;59072;42.144;25.200;2024-01-27T12:12:17;2.33;;;1.73;;
71148;SDS011;59072;42.144;25.200;2024-01-27T12:14:49;3.70;;;2.10;;
71148;SDS011;59072;42.144;25.200;2024-01-27T12:17:16;4.63;;;2.30;;
71148;SDS011;59072;42.144;25.200;2024-01-27T12:19:47;5.35;;;2.42;;
71148;SDS011;59072;42.144;25.200;2024-01-27T12:22:27;4.07;;;2.05;;
71148;SDS011;59072;42.144;25.200;2024-01-27T12:24:55;7.40;;;3.47;;
71148;SDS011;59072;42.144;25.200;2024-01-27T12:27:33;4.40;;;2.60;;
71148;SDS011;59072;42.144;25.200;2024-01-27T12:29:59;2.33;;;1.70;;
71148;SDS011;59072;42.144;25.200;2024-01-27T12:32:26;3.13;;;2.10;;
71148;SDS011;59072;42.144;25.200;2024-01-27T12:34:51;4.05;;;1.73;;
71148;SDS011;59072;42.144;25.200;2024-01-27T12:37:17;4.57;;;2.30;;
71148;SDS011;59072;42.144;25.200;2024-01-27T12:39:42;3.17;;;1.80;;
71148;SDS011;59072;42.144;25.200;2024-01-27T12:42:09;4.22;;;2.00;;
71148;SDS011;59072;42.144;25.200;2024-01-27T12:44:36;3.40;;;2.10;;
71148;SDS011;59072;42.144;25.200;2024-01-27T12:47:01;4.15;;;2.40;;
71148;SDS011;59072;42.144;25.200;2024-01-27T12:49:27;3.88;;;2.17;;
71148;SDS011;59072;42.144;25.200;2024-01-27T12:51:52;2.63;;;1.80;;
71148;SDS011;59072;42.144;25.200;2024-01-27T12:54:18;6.45;;;2.30;;
71148;SDS011;59072;42.144;25.200;2024-01-27T12:56:44;3.08;;;2.00;;
71148;SDS011;59072;42.144;25.200;2024-01-27T12:59:10;2.92;;;2.00;;
71148;SDS011;59072;42.144;25.200;2024-01-27T13:01:35;9.40;;;5.05;;
71148;SDS011;59072;42.144;25.200;2024-01-27T13:04:01;4.35;;;2.20;;
71148;SDS011;59072;42.144;25.200;2024-01-27T13:06:27;2.97;;;1.77;;
71148;SDS011;59072;42.144;25.200;2024-01-27T13:08:52;4.03;;;2.28;;
71148;SDS011;59072;42.144;25.200;2024-01-27T13:11:19;3.28;;;2.20;;
71148;SDS011;59072;42.144;25.200;2024-01-27T13:13:45;4.93;;;2.60;;
71148;SDS011;59072;42.144;25.200;2024-01-27T13:16:10;3.40;;;2.35;;
71148;SDS011;59072;42.144;25.200;2024-01-27T13:18:36;4.50;;;2.60;;
71148;SDS011;59072;42.144;25.200;2024-01-27T13:21:02;21.38;;;9.38;;
71148;SDS011;59072;42.144;25.200;2024-01-27T13:23:29;8.27;;;4.70;;
71148;SDS011;59072;42.144;25.200;2024-01-27T13:25:55;6.72;;;3.10;;
71148;SDS011;59072;42.144;25.200;2024-01-27T13:28:20;4.45;;;2.45;;
71148;SDS011;59072;42.144;25.200;2024-01-27T13:30:45;5.88;;;3.17;;
71148;SDS011;59072;42.144;25.200;2024-01-27T13:33:11;8.85;;;4.10;;
71148;SDS011;59072;42.144;25.200;2024-01-27T13:35:37;4.80;;;2.80;;
71148;SDS011;59072;42.144;25.200;2024-01-27T13:40:30;4.60;;;2.50;;
71148;SDS011;59072;42.144;25.200;2024-01-27T13:42:55;9.45;;;4.32;;
71148;SDS011;59072;42.144;25.200;2024-01-27T13:45:22;6.72;;;3.40;;
71148;SDS011;59072;42.144;25.200;2024-01-27T13:47:48;4.45;;;3.00;;
71148;SDS011;59072;42.144;25.200;2024-01-27T13:50:13;3.83;;;2.90;;
71148;SDS011;59072;42.144;25.200;2024-01-27T13:52:39;4.50;;;2.50;;
71148;SDS011;59072;42.144;25.200;2024-01-27T13:55:06;5.05;;;3.08;;
71148;SDS011;59072;42.144;25.200;2024-01-27T13:57:31;4.25;;;2.42;;
71148;SDS011;59072;42.144;25.200;2024-01-27T13:59:57;7.95;;;3.63;;
71148;SDS011;59072;42.144;25.200;2024-01-27T14:02:23;6.43;;;4.05;;
71148;SDS011;59072;42.144;25.200;2024-01-27T14:04:50;12.52;;;5.55;;
71148;SDS011;59072;42.144;25.200;2024-01-27T14:07:15;3.72;;;2.30;;
71148;SDS011;59072;42.144;25.200;2024-01-27T14:09:41;4.82;;;3.00;;
71148;SDS011;59072;42.144;25.200;2024-01-27T14:12:09;14.93;;;6.53;;
71148;SDS011;59072;42.144;25.200;2024-01-27T14:14:34;24.52;;;12.32;;
71148;SDS011;59072;42.144;25.200;2024-01-27T14:17:03;13.10;;;5.32;;
71148;SDS011;59072;42.144;25.200;2024-01-27T14:19:29;3.63;;;2.67;;
71148;SDS011;59072;42.144;25.200;2024-01-27T14:21:55;9.05;;;4.63;;